M I D A S
Marine Information and Data Acquisition System
Tripno 69 of the Zeeleeuw from 2001-11-30 09:45:00 to 2001-11-30 15:10:00
Back to CruiseResearch ActivitiesStationsMapUnderway DataData graphs

EquipmentUnitsComment
TimeDGPSUTC
LatitudeDGPSDM.mWGS84
LongitudeDGPSDM.mWGS84
HeadingGyrodeg 
SOGDGPSknotsSpeed over ground
COGDGPSdegCourse over ground
DepthEcho soundermeters200 kHz
Missing or incorrect values are displayed as -999
Navigation data collected by the RV Zeeleeuw from 2001-11-30 09:45:00 to 2001-11-30 15:10:00
                                                                                    Next 1000 lines
Time Latitude Longitude Heading SOG COG Depth
2001-11-30 09:45:08 51°19.984 2°59.489 38.8 13.6 36.3 10.9
2001-11-30 09:45:13 51°20 2°59.505 36.5 13.6 34.9 11
2001-11-30 09:45:19 51°20.02 2°59.523 34 13.6 31.5 11.1
2001-11-30 09:45:24 51°20.037 2°59.538 32 13.7 29.7 11
2001-11-30 09:45:29 51°20.053 2°59.553 32.3 13.7 28.8 11.1
2001-11-30 09:45:34 51°20.07 2°59.567 31.8 13.6 28.8 11
2001-11-30 09:45:39 51°20.087 2°59.582 31.5 13.7 28.6 11.2
2001-11-30 09:45:43 51°20.1 2°59.594 32.3 13.8 29 11.3
2001-11-30 09:45:49 51°20.12 2°59.612 32.5 13.8 29.1 11.3
2001-11-30 09:45:54 51°20.137 2°59.627 33.3 13.8 30 11.3
2001-11-30 09:45:59 51°20.153 2°59.643 33.7 13.8 30.5 11.3
2001-11-30 09:46:03 51°20.166 2°59.655 34.3 13.8 30.8 11.3
2001-11-30 09:46:09 51°20.186 2°59.674 33.8 13.9 30.7 11.2
2001-11-30 09:46:13 51°20.199 2°59.685 31.3 13.8 29.2 11.5
2001-11-30 09:46:18 51°20.216 2°59.699 29.8 13.8 27.8 11.4
2001-11-30 09:46:24 51°20.237 2°59.716 29.3 13.7 26.9 11.4
2001-11-30 09:46:27 51°20.247 2°59.725 31 13.8 28 11.5
2001-11-30 09:46:33 51°20.267 2°59.743 33.7 13.8 28.7 11.5
2001-11-30 09:46:39 51°20.286 2°59.763 35.5 13.8 32 11.6
2001-11-30 09:46:44 51°20.302 2°59.781 36.5 13.8 32.8 11.6
2001-11-30 09:46:49 51°20.318 2°59.797 36.3 13.8 34 11.6
2001-11-30 09:46:54 51°20.333 2°59.814 36.7 13.8 33.7 11.7
2001-11-30 09:46:59 51°20.349 2°59.831 36.2 13.7 33.4 11.7
2001-11-30 09:47:03 51°20.362 2°59.844 35.5 13.8 33.5 11.7
2001-11-30 09:47:08 51°20.379 2°59.86 34.5 13.8 31.8 11.8
2001-11-30 09:47:14 51°20.398 2°59.88 34.7 13.8 32.3 11.5
2001-11-30 09:47:19 51°20.414 2°59.896 34.3 13.8 31.6 11.8
2001-11-30 09:47:23 51°20.427 2°59.908 33.2 13.8 31.3 11.8
2001-11-30 09:47:29 51°20.447 2°59.927 33.2 13.8 30.5 11.7
2001-11-30 09:47:33 51°20.461 2°59.939 32.2 13.8 30.2 11.8
2001-11-30 09:47:38 51°20.477 2°59.954 32.8 13.8 29.9 11.8
2001-11-30 09:47:43 51°20.494 2°59.969 31.7 13.8 29.9 12
2001-11-30 09:47:49 51°20.513 2°59.989 33.3 13.8 30.7 12
2001-11-30 09:47:54 51°20.53 3°0.002 31.2 13.7 30.9 12
2001-11-30 09:47:59 51°20.547 3°0.019 32.8 13.8 29.1 11.9
2001-11-30 09:48:02 51°20.557 3°0.027 31 13.8 30 12
2001-11-30 09:48:08 51°20.577 3°0.045 32 13.8 28.3 12
2001-11-30 09:48:13 51°20.593 3°0.06 31.5 13.8 30.1 12.1
2001-11-30 09:48:19 51°20.613 3°0.078 31.5 13.8 29.2 12.1
2001-11-30 09:48:23 51°20.626 3°0.091 32.3 13.7 30.7 12.1
2001-11-30 09:48:29 51°20.647 3°0.108 31.3 13.8 29.2 12.2
2001-11-30 09:48:34 51°20.663 3°0.125 33 13.8 30.7 12.1
2001-11-30 09:48:39 51°20.68 3°0.139 31.7 13.8 30.3 12.1
2001-11-30 09:48:43 51°20.692 3°0.153 33.8 13.8 31.4 12.2
2001-11-30 09:48:48 51°20.709 3°0.167 31.7 13.8 30.4 12.2
2001-11-30 09:48:53 51°20.725 3°0.184 33.8 13.8 30.3 12.3
2001-11-30 09:48:59 51°20.745 3°0.201 32.2 13.7 29.9 12.3
2001-11-30 09:49:03 51°20.758 3°0.216 35.2 13.7 32.1 12.3
2001-11-30 09:49:09 51°20.778 3°0.232 31.7 13.7 31.6 12.4
2001-11-30 09:49:14 51°20.794 3°0.25 34.2 13.8 31.4 12.3
2001-11-30 09:49:19 51°20.811 3°0.264 32 13.7 29.8 12.2
2001-11-30 09:49:23 51°20.823 3°0.278 33.7 13.7 30.6 12.4
2001-11-30 09:49:29 51°20.843 3°0.294 31.7 13.7 30.5 12.4
2001-11-30 09:49:34 51°20.859 3°0.312 33.7 13.7 29.5 12.4
2001-11-30 09:49:39 51°20.876 3°0.325 31.8 13.8 29.8 12.4
2001-11-30 09:49:43 51°20.889 3°0.338 33 13.7 29.7 12.5
2001-11-30 09:49:49 51°20.909 3°0.356 32.2 13.7 30.7 12.5
2001-11-30 09:49:54 51°20.925 3°0.373 33 13.7 29.1 12.4
2001-11-30 09:49:59 51°20.942 3°0.387 32.7 13.7 30.2 12.4
2001-11-30 09:50:03 51°20.956 3°0.399 33.3 13.8 29.8 12.4
2001-11-30 09:50:09 51°20.976 3°0.417 32.2 13.9 30.9 12.5
2001-11-30 09:50:14 51°20.992 3°0.434 34 13.9 29.3 12.4
2001-11-30 09:50:19 51°21.009 3°0.449 32.7 13.8 30.5 12.4
2001-11-30 09:50:23 51°21.022 3°0.461 32.3 13.7 29.2 12.6
2001-11-30 09:50:29 51°21.042 3°0.48 32.8 13.7 30.9 12.5
2001-11-30 09:50:34 51°21.058 3°0.495 32.8 13.7 29 12.5
2001-11-30 09:50:39 51°21.074 3°0.51 32.8 13.7 30.7 12.6
2001-11-30 09:50:43 51°21.088 3°0.522 32.8 13.7 29.5 12.7
2001-11-30 09:50:49 51°21.107 3°0.543 34.3 13.7 32.2 12.6
2001-11-30 09:50:54 51°21.123 3°0.557 33 13.7 30.3 12.6
2001-11-30 09:50:59 51°21.139 3°0.574 33.8 13.8 31.5 12.5
2001-11-30 09:51:03 51°21.153 3°0.585 32.8 13.7 29.9 12.7
2001-11-30 09:51:08 51°21.169 3°0.602 34.2 13.7 31.8 12.7
2001-11-30 09:51:14 51°21.189 3°0.62 33.5 13.7 30.4 12.7
2001-11-30 09:51:19 51°21.205 3°0.637 34.3 13.8 32 12.7
2001-11-30 09:51:23 51°21.218 3°0.648 33 13.8 30.2 12.7
2001-11-30 09:51:28 51°21.234 3°0.666 34.5 13.7 32.3 12.8
2001-11-30 09:51:34 51°21.254 3°0.682 31.3 13.7 30.2 12.8
2001-11-30 09:51:39 51°21.27 3°0.699 33.5 13.8 31 12.8
2001-11-30 09:51:43 51°21.284 3°0.71 32 13.8 29.5 12.8
2001-11-30 09:51:48 51°21.3 3°0.727 34 13.8 31.4 12.8
2001-11-30 09:51:54 51°21.32 3°0.744 32.5 13.7 30.2 12.8
2001-11-30 09:51:59 51°21.335 3°0.762 34.2 13.7 32.2 12.6
2001-11-30 09:52:03 51°21.349 3°0.772 32.3 13.8 30.3 12.8
2001-11-30 09:52:09 51°21.368 3°0.793 34.7 13.8 32 12.8
2001-11-30 09:52:14 51°21.385 3°0.807 32.5 13.7 31.1 12.8
2001-11-30 09:52:18 51°21.397 3°0.821 34 13.7 31.7 12.8
2001-11-30 09:52:23 51°21.414 3°0.835 32.5 13.7 30.1 12.8
2001-11-30 09:52:29 51°21.433 3°0.855 34.3 13.7 30.9 12.9
2001-11-30 09:52:34 51°21.45 3°0.868 31.7 13.7 30.1 12.9
2001-11-30 09:52:39 51°21.466 3°0.886 34 13.6 31.4 12.8
2001-11-30 09:52:43 51°21.48 3°0.896 31.5 13.6 29.5 12.9
2001-11-30 09:52:48 51°21.495 3°0.913 34.7 13.6 30.9 12.9
2001-11-30 09:52:53 51°21.512 3°0.927 31.7 13.6 30.7 12.9
2001-11-30 09:52:59 51°21.531 3°0.946 34 13.7 30.9 12.9
2001-11-30 09:53:04 51°21.548 3°0.96 32.3 13.6 30.1 12.9
2001-11-30 09:53:09 51°21.564 3°0.976 33.8 13.6 30.2 12.9
2001-11-30 09:53:14 51°21.581 3°0.99 32 13.6 30.9 12.8
2001-11-30 09:53:19 51°21.597 3°1.006 33.2 13.6 29.3 12.9
2001-11-30 09:53:23 51°21.611 3°1.017 32 13.7 29.5 12.9
2001-11-30 09:53:28 51°21.627 3°1.033 33.7 13.7 30.4 13
2001-11-30 09:53:34 51°21.647 3°1.049 31.8 13.7 30.5 12.9
2001-11-30 09:53:38 51°21.66 3°1.063 33.5 13.7 30 12.9
2001-11-30 09:53:44 51°21.68 3°1.078 30.2 13.6 28.5 13
2001-11-30 09:53:49 51°21.696 3°1.094 32.3 13.5 28.9 13
2001-11-30 09:53:53 51°21.71 3°1.104 29.8 13.4 28.3 12.9
2001-11-30 09:53:58 51°21.726 3°1.119 31 13.5 28.2 13
2001-11-30 09:54:02 51°21.739 3°1.129 28.5 13.5 26.5 13
2001-11-30 09:54:07 51°21.756 3°1.142 30.5 13.5 26.3 13
2001-11-30 09:54:14 51°21.78 3°1.159 27.8 13.5 25.9 13
2001-11-30 09:54:19 51°21.797 3°1.174 29.3 13.5 25.5 13
2001-11-30 09:54:23 51°21.811 3°1.183 27.7 13.5 25.5 12.9
2001-11-30 09:54:29 51°21.831 3°1.199 28.3 13.6 24 12.9
2001-11-30 09:54:34 51°21.849 3°1.21 27.3 13.6 25.6 12.9
2001-11-30 09:54:39 51°21.866 3°1.223 27.8 13.6 24.2 13
2001-11-30 09:54:44 51°21.883 3°1.235 27.3 13.6 24.9 12.9
2001-11-30 09:54:49 51°21.9 3°1.248 27.8 13.7 23.1 13
2001-11-30 09:54:53 51°21.914 3°1.259 28 13.7 25.6 12.9
2001-11-30 09:54:58 51°21.931 3°1.27 28 13.6 24.1 13
2001-11-30 09:55:04 51°21.951 3°1.286 28.3 13.6 25.9 12.9
2001-11-30 09:55:08 51°21.966 3°1.296 27.5 13.6 24.3 12.9
2001-11-30 09:55:13 51°21.982 3°1.31 28 13.6 25.9 12.8
2001-11-30 09:55:19 51°22.003 3°1.324 27.7 13.7 24.4 12.8
2001-11-30 09:55:22 51°22.013 3°1.334 28.7 13.7 26.6 12.7
2001-11-30 09:55:29 51°22.038 3°1.35 27 13.7 24.2 12.7
2001-11-30 09:55:32 51°22.047 3°1.36 28.8 13.7 25.3 12.8
2001-11-30 09:55:39 51°22.072 3°1.375 26.5 13.6 24.2 12.8
2001-11-30 09:55:43 51°22.085 3°1.388 28.5 13.6 26.2 12.7
2001-11-30 09:55:49 51°22.106 3°1.401 26.5 13.6 24.1 12.7
2001-11-30 09:55:54 51°22.122 3°1.417 29.2 13.6 26 12.8
2001-11-30 09:55:59 51°22.14 3°1.428 26.3 13.6 24.6 12.7
2001-11-30 09:56:04 51°22.156 3°1.443 29.2 13.7 26.8 12.7
2001-11-30 09:56:09 51°22.174 3°1.454 25.5 13.7 25.6 12.6
2001-11-30 09:56:13 51°22.188 3°1.467 28.3 13.7 26.2 12.6
2001-11-30 09:56:19 51°22.208 3°1.48 26 13.7 24.9 12.4
2001-11-30 09:56:23 51°22.221 3°1.493 28.7 13.7 26.6 12.4
2001-11-30 09:56:28 51°22.239 3°1.505 26 13.7 26 12.1
2001-11-30 09:56:33 51°22.255 3°1.52 28.5 13.7 26.6 11.5
2001-11-30 09:56:39 51°22.276 3°1.534 26.2 13.6 25.6 11.9
2001-11-30 09:56:43 51°22.29 3°1.547 28.2 13.7 26.6 11.4
2001-11-30 09:56:47 51°22.303 3°1.557 25.5 13.6 26 11.6
2001-11-30 09:56:54 51°22.326 3°1.576 28.2 13.6 26.3 11.6
2001-11-30 09:56:59 51°22.344 3°1.588 25.7 13.6 27 12.1
2001-11-30 09:57:03 51°22.357 3°1.599 27.3 13.6 25.6 12.3
2001-11-30 09:57:09 51°22.378 3°1.613 25.3 13.6 26 11.8
2001-11-30 09:57:14 51°22.395 3°1.627 26.7 13.6 24.4 12
2001-11-30 09:57:19 51°22.412 3°1.639 25.3 13.6 25.2 11.6
2001-11-30 09:57:24 51°22.429 3°1.652 25.8 13.6 24.1 11.8
2001-11-30 09:57:28 51°22.443 3°1.661 25 13.6 24.6 11.7
2001-11-30 09:57:34 51°22.463 3°1.677 25.3 13.6 23.3 11.8
2001-11-30 09:57:39 51°22.481 3°1.688 24.8 13.5 24.3 11.8
2001-11-30 09:57:44 51°22.498 3°1.702 26.2 13.6 24.1 11.9
2001-11-30 09:57:48 51°22.512 3°1.712 25 13.7 25 12.1
2001-11-30 09:57:53 51°22.529 3°1.725 26.3 13.7 24.3 12.1
2001-11-30 09:57:59 51°22.55 3°1.739 25.3 13.7 25.1 12.3
2001-11-30 09:58:03 51°22.564 3°1.75 26.8 13.7 25 12.6
2001-11-30 09:58:09 51°22.585 3°1.764 24.7 13.7 25.5 13
2001-11-30 09:58:13 51°22.599 3°1.775 26.2 13.7 23.3 13
2001-11-30 09:58:19 51°22.62 3°1.79 25 13.7 24.3 13.3
2001-11-30 09:58:24 51°22.637 3°1.804 26.7 13.7 24.4 13.3
2001-11-30 09:58:28 51°22.65 3°1.814 25 13.7 26.2 13.2
2001-11-30 09:58:33 51°22.668 3°1.826 25.8 13.6 23.8 13.3
2001-11-30 09:58:38 51°22.685 3°1.839 25.5 13.7 24.9 13.1
2001-11-30 09:58:43 51°22.703 3°1.851 25.2 13.7 23.7 13
2001-11-30 09:58:48 51°22.719 3°1.865 25.7 13.7 25.6 12.8
2001-11-30 09:58:52 51°22.734 3°1.873 25.8 13.7 24.1 12.8
2001-11-30 09:58:58 51°22.753 3°1.89 26 13.6 25.6 12.6
2001-11-30 09:59:03 51°22.771 3°1.902 26.2 13.6 24.3 12.5
2001-11-30 09:59:08 51°22.788 3°1.917 26.8 13.7 26.6 12.6
2001-11-30 09:59:14 51°22.809 3°1.931 26.2 13.7 24.7 12.2
2001-11-30 09:59:18 51°22.822 3°1.943 27.5 13.7 27 12.1
2001-11-30 09:59:23 51°22.839 3°1.955 25.8 13.6 25.1 12.3
2001-11-30 09:59:28 51°22.856 3°1.969 26.3 13.6 26.3 12.2
2001-11-30 09:59:33 51°22.873 3°1.981 26.7 13.6 24.9 12.1
2001-11-30 09:59:39 51°22.893 3°1.998 27 13.7 26.4 12.1
2001-11-30 09:59:43 51°22.908 3°2.007 26.2 13.7 24.8 12.1
2001-11-30 09:59:48 51°22.924 3°2.023 27.2 13.7 26.8 12
2001-11-30 09:59:52 51°22.938 3°2.031 25.8 13.7 24.7 11.7
2001-11-30 09:59:58 51°22.958 3°2.049 26.8 13.7 27.1 11.6
2001-11-30 10:00:03 51°22.976 3°2.06 25 13.7 24.6 11.3
2001-11-30 10:00:09 51°22.996 3°2.078 26.8 13.7 26.8 11.3
2001-11-30 10:00:13 51°23.01 3°2.086 24.3 13.7 24.8 11.2
2001-11-30 10:00:18 51°23.026 3°2.102 27.3 13.7 27.2 11.2
2001-11-30 10:00:22 51°23.04 3°2.111 24.2 13.7 25.1 11.2
2001-11-30 10:00:29 51°23.064 3°2.132 27.2 13.7 26.1 11.3
2001-11-30 10:00:33 51°23.078 3°2.14 23.8 13.7 26 11.6
2001-11-30 10:00:39 51°23.098 3°2.158 26.3 13.8 26.4 12
2001-11-30 10:00:43 51°23.113 3°2.167 23.8 13.8 24.6 12.5
2001-11-30 10:00:48 51°23.13 3°2.182 26.2 13.9 25.2 13.3
2001-11-30 10:00:54 51°23.151 3°2.195 24.3 13.9 25.1 13.6
2001-11-30 10:00:57 51°23.161 3°2.205 26.8 14 25.7 13.7
2001-11-30 10:01:03 51°23.183 3°2.219 24.2 14 24.9 13.9
2001-11-30 10:01:08 51°23.2 3°2.234 26.5 14 26.2 14.3
2001-11-30 10:01:13 51°23.217 3°2.246 24.7 13.9 25.2 13.7
2001-11-30 10:01:19 51°23.238 3°2.264 26.8 13.9 25 14
2001-11-30 10:01:23 51°23.252 3°2.273 25 13.9 25.6 14
2001-11-30 10:01:29 51°23.272 3°2.291 27.7 13.9 25.7 13.9
2001-11-30 10:01:34 51°23.29 3°2.303 25.8 13.9 27.2 14
2001-11-30 10:01:38 51°23.303 3°2.316 28.3 13.8 25.8 13.5
2001-11-30 10:01:42 51°23.317 3°2.327 25.5 13.8 27.3 13.2
2001-11-30 10:01:49 51°23.341 3°2.347 27.8 13.8 26.6 12.6
2001-11-30 10:01:53 51°23.355 3°2.357 25.5 13.8 27.6 12.6
2001-11-30 10:01:59 51°23.375 3°2.375 27 13.8 26.1 12.7
2001-11-30 10:02:03 51°23.389 3°2.385 25.8 13.9 27.7 13
2001-11-30 10:02:08 51°23.406 3°2.398 25.3 13.8 25.6 13.7
2001-11-30 10:02:14 51°23.427 3°2.415 26 13.9 27.2 14.4
2001-11-30 10:02:19 51°23.444 3°2.429 26 14 25.5 15.1
2001-11-30 10:02:22 51°23.454 3°2.439 26.2 14.1 27.5 15.1
2001-11-30 10:02:28 51°23.475 3°2.453 25.8 14 25.6 14.9
2001-11-30 10:02:32 51°23.489 3°2.466 26.3 14 27.4 14.9
2001-11-30 10:02:38 51°23.51 3°2.48 24.8 13.9 25.2 14.8
2001-11-30 10:02:43 51°23.527 3°2.495 26 13.9 26.8 15
2001-11-30 10:02:47 51°23.541 3°2.504 25.8 13.9 25.4 14.9
2001-11-30 10:02:53 51°23.561 3°2.523 26.5 13.9 27.6 14.9
2001-11-30 10:02:59 51°23.582 3°2.537 25.7 13.8 25.5 15
2001-11-30 10:03:03 51°23.595 3°2.55 26.8 13.8 27.7 15.3
2001-11-30 10:03:08 51°23.613 3°2.562 25.7 13.8 27.5 15.3
2001-11-30 10:03:13 51°23.63 3°2.579 27.3 13.9 28.2 15.3
2001-11-30 10:03:19 51°23.651 3°2.593 25.2 13.9 25.6 15.3
2001-11-30 10:03:23 51°23.664 3°2.606 27.2 14 27.9 15.3
2001-11-30 10:03:29 51°23.686 3°2.62 24.8 13.9 25.5 15.3
2001-11-30 10:03:34 51°23.703 3°2.636 26.7 14 27.4 15.4
2001-11-30 10:03:39 51°23.721 3°2.648 24.5 13.9 25.1 15.5
2001-11-30 10:03:43 51°23.734 3°2.661 27.2 14 27.3 15.5
2001-11-30 10:03:47 51°23.748 3°2.67 24.2 13.9 25.3 15.6
2001-11-30 10:03:53 51°23.769 3°2.688 26.7 14 26.4 15.6
2001-11-30 10:03:59 51°23.79 3°2.703 24.8 14 26.2 15.7
2001-11-30 10:04:03 51°23.803 3°2.716 27 14 27.5 15.8
2001-11-30 10:04:09 51°23.825 3°2.73 24.8 14 25.6 15.8
2001-11-30 10:04:14 51°23.841 3°2.747 27.3 14 27.4 15.8
2001-11-30 10:04:19 51°23.859 3°2.758 25.2 14 27.9 15.9
2001-11-30 10:04:23 51°23.872 3°2.772 27.5 14 27.7 15.9
2001-11-30 10:04:28 51°23.89 3°2.785 25.5 14 28.2 15.9
2001-11-30 10:04:32 51°23.904 3°2.797 28 14 28.1 15.8
2001-11-30 10:04:38 51°23.924 3°2.813 25 13.9 26.9 15.8
2001-11-30 10:04:44 51°23.945 3°2.832 27.5 14 26.1 15.9
2001-11-30 10:04:49 51°23.963 3°2.843 24.8 14 27.9 16
2001-11-30 10:04:53 51°23.976 3°2.856 26.8 14 26.8 16
2001-11-30 10:04:58 51°23.994 3°2.869 25.2 13.9 26.4 16
2001-11-30 10:05:03 51°24.011 3°2.884 27.2 14 27 16.1
2001-11-30 10:05:07 51°24.025 3°2.896 25.7 14.1 27.2 16.2
2001-11-30 10:05:13 51°24.046 3°2.913 26.5 14.1 26.8 16.3
2001-11-30 10:05:18 51°24.063 3°2.926 25.3 14.1 27.1 16.4
2001-11-30 10:05:22 51°24.077 3°2.937 26.2 14.1 26.4 16.5
2001-11-30 10:05:27 51°24.094 3°2.952 25.8 14.1 27.1 16.5
2001-11-30 10:05:31 51°24.109 3°2.963 27.2 14.1 27.2 16.5
2001-11-30 10:05:38 51°24.132 3°2.984 26.2 14.1 27.9 16.5
2001-11-30 10:05:44 51°24.153 3°3.002 27.3 14.1 26.8 16.4
2001-11-30 10:05:49 51°24.171 3°3.015 25.8 14.1 28.6 16.5
2001-11-30 10:05:54 51°24.188 3°3.031 27.8 14.1 27.1 16.4
2001-11-30 10:05:58 51°24.202 3°3.041 25.5 14 26.6 16.3
2001-11-30 10:06:03 51°24.219 3°3.055 26.3 14 26.1 16.5
2001-11-30 10:06:07 51°24.233 3°3.066 24.5 14 26.8 16.8
2001-11-30 10:06:14 51°24.258 3°3.084 23.8 14 24.2 16.8
2001-11-30 10:06:19 51°24.276 3°3.096 23.2 14 25.5 17
2001-11-30 10:06:23 51°24.29 3°3.105 22.3 13.9 22.5 17
2001-11-30 10:06:27 51°24.304 3°3.117 22.7 14 24.5 17.1
2001-11-30 10:06:33 51°24.326 3°3.129 21 13.9 22.1 17.5
2001-11-30 10:06:37 51°24.339 3°3.141 23.2 13.9 23.6 18.2
2001-11-30 10:06:44 51°24.365 3°3.155 20.3 13.9 23 19.1
2001-11-30 10:06:48 51°24.379 3°3.167 22.7 14 22.7 19.9
2001-11-30 10:06:54 51°24.401 3°3.179 20.3 14 21.9 20
2001-11-30 10:06:59 51°24.418 3°3.193 22.7 14 23.5 20.3
2001-11-30 10:07:03 51°24.433 3°3.2 20.2 14 22 20.2
2001-11-30 10:07:08 51°24.451 3°3.214 22.5 14 22.5 20.4
2001-11-30 10:07:13 51°24.469 3°3.224 21.2 13.9 22.8 20.5
2001-11-30 10:07:19 51°24.489 3°3.242 24.3 14 22.9 20.5
2001-11-30 10:07:23 51°24.504 3°3.25 22.2 14 24.3 20.5
2001-11-30 10:07:28 51°24.522 3°3.263 24.2 14 23.8 20.5
2001-11-30 10:07:34 51°24.543 3°3.278 23.3 13.9 24.9 20.4
2001-11-30 10:07:39 51°24.56 3°3.292 25 13.9 24 20.3
2001-11-30 10:07:43 51°24.574 3°3.303 25 14 26 20.6
2001-11-30 10:07:47 51°24.588 3°3.313 26 14 25.1 20.2
2001-11-30 10:07:54 51°24.612 3°3.333 25.8 14 27 19.9
2001-11-30 10:07:59 51°24.63 3°3.347 27.2 14 25.7 19.5
2001-11-30 10:08:03 51°24.643 3°3.36 26.8 14 28.3 19.8
2001-11-30 10:08:09 51°24.664 3°3.375 25.8 13.9 25.8 19.5
2001-11-30 10:08:13 51°24.678 3°3.387 27.2 14 27.6 19.4
2001-11-30 10:08:19 51°24.699 3°3.402 25 13.9 25.4 19.2
2001-11-30 10:08:23 51°24.712 3°3.415 26.7 14 27.5 18.7
2001-11-30 10:08:29 51°24.734 3°3.429 24.5 13.9 24.9 18.2
2001-11-30 10:08:33 51°24.747 3°3.441 26.2 13.9 27 17.9
2001-11-30 10:08:39 51°24.768 3°3.455 23.7 13.8 24 17.9
2001-11-30 10:08:44 51°24.785 3°3.47 25.7 13.9 26 17.5
2001-11-30 10:08:48 51°24.8 3°3.478 24.3 13.8 24.6 17.3
2001-11-30 10:08:52 51°24.813 3°3.49 26 13.8 25.9 17.1
2001-11-30 10:08:59 51°24.838 3°3.506 23.8 13.8 24.5 16.8
2001-11-30 10:09:03 51°24.851 3°3.519 26.7 13.8 26.1 16.5
2001-11-30 10:09:09 51°24.872 3°3.533 23.7 13.8 24.3 16.3
2001-11-30 10:09:14 51°24.889 3°3.549 27.2 13.8 26 16.1
2001-11-30 10:09:19 51°24.906 3°3.56 25.3 13.8 26.5 16
2001-11-30 10:09:23 51°24.92 3°3.573 27.3 13.8 26.6 16
2001-11-30 10:09:27 51°24.933 3°3.583 26 13.8 26.8 16.1
2001-11-30 10:09:34 51°24.957 3°3.604 28.2 13.8 27.3 16.2
2001-11-30 10:09:39 51°24.975 3°3.616 26.7 13.8 26.8 16.4
2001-11-30 10:09:44 51°24.991 3°3.632 28.5 13.8 26.8 16.5
2001-11-30 10:09:48 51°25.005 3°3.643 27.7 13.8 28.8 16.4
2001-11-30 10:09:53 51°25.022 3°3.658 28.8 13.8 27.9 16.4
2001-11-30 10:09:58 51°25.039 3°3.672 27.2 13.9 28.4 16.4
2001-11-30 10:10:03 51°25.056 3°3.686 28.5 13.8 27.7 16.4
2001-11-30 10:10:09 51°25.076 3°3.703 27.2 13.8 28.7 16.3
2001-11-30 10:10:14 51°25.093 3°3.717 27.7 13.8 27.1 16.2
2001-11-30 10:10:19 51°25.11 3°3.731 27.2 13.8 27.9 16.2
2001-11-30 10:10:24 51°25.127 3°3.746 28.5 13.8 27.3 16.1
2001-11-30 10:10:29 51°25.144 3°3.759 26.8 13.8 28.2 16
2001-11-30 10:10:33 51°25.158 3°3.77 28 13.8 26.1 15.7
2001-11-30 10:10:39 51°25.179 3°3.787 26.7 13.8 27.8 15.5
2001-11-30 10:10:43 51°25.192 3°3.798 27.3 13.8 26.1 15.2
2001-11-30 10:10:48 51°25.209 3°3.812 27 13.8 27.6 15
2001-11-30 10:10:54 51°25.229 3°3.829 27.7 13.7 26 14.9
2001-11-30 10:10:59 51°25.246 3°3.843 26.8 13.8 27.7 14.7
2001-11-30 10:11:03 51°25.26 3°3.854 27.7 13.7 26.4 14.6
2001-11-30 10:11:08 51°25.277 3°3.868 26.8 13.7 28.1 14.4
2001-11-30 10:11:13 51°25.294 3°3.88 26.7 13.7 25.8 14.3
2001-11-30 10:11:18 51°25.311 3°3.895 26.3 13.7 27.4 14.3
2001-11-30 10:11:23 51°25.328 3°3.907 25.8 13.7 25.6 14.1
2001-11-30 10:11:28 51°25.344 3°3.922 26.2 13.7 26.4 14.1
2001-11-30 10:11:34 51°25.366 3°3.936 24.3 13.7 24.1 14.1
2001-11-30 10:11:39 51°25.382 3°3.95 26.2 13.7 25.9 14.1
2001-11-30 10:11:43 51°25.397 3°3.958 23.8 13.7 23.8 14.1
2001-11-30 10:11:49 51°25.417 3°3.975 25 13.7 25.2 14.1
2001-11-30 10:11:54 51°25.435 3°3.986 24 13.7 23.4 14
2001-11-30 10:11:59 51°25.451 3°4.001 26.2 13.6 24.8 13.7
2001-11-30 10:12:03 51°25.466 3°4.009 24.2 13.6 24 13.8
2001-11-30 10:12:09 51°25.485 3°4.026 25.8 13.7 25.8 13.7
2001-11-30 10:12:14 51°25.503 3°4.037 24 13.7 24 13.4
2001-11-30 10:12:19 51°25.519 3°4.051 25.3 13.7 25.3 13.4
2001-11-30 10:12:23 51°25.533 3°4.059 24 13.6 24.1 13.5
2001-11-30 10:12:29 51°25.553 3°4.077 26.3 13.6 26 13.4
2001-11-30 10:12:34 51°25.571 3°4.087 23.3 13.5 24.4 13.5
2001-11-30 10:12:39 51°25.587 3°4.103 26.5 13.5 24.1 12.4
2001-11-30 10:12:43 51°25.602 3°4.11 23.5 13.6 24.1 13.1
2001-11-30 10:12:49 51°25.622 3°4.127 26 13.6 25.2 13.4
2001-11-30 10:12:53 51°25.636 3°4.135 23.8 13.6 24.9 13.5
2001-11-30 10:12:58 51°25.653 3°4.149 25.8 13.6 24.8 13.8
2001-11-30 10:13:03 51°25.67 3°4.161 24.5 13.7 24.7 13.9
2001-11-30 10:13:09 51°25.691 3°4.178 26.5 13.7 25.5 14
2001-11-30 10:13:14 51°25.707 3°4.19 26.3 13.6 26.2 13.7
2001-11-30 10:13:18 51°25.72 3°4.203 28.2 13.5 27 13.3
2001-11-30 10:13:23 51°25.737 3°4.215 26.8 13.6 27 13.5
2001-11-30 10:13:29 51°25.757 3°4.234 28.7 13.6 28.1 13.9
2001-11-30 10:13:34 51°25.775 3°4.245 26.5 13.6 27.9 13.8
2001-11-30 10:13:39 51°25.791 3°4.262 29.2 13.7 28.5 14
2001-11-30 10:13:44 51°25.808 3°4.274 26.7 13.6 27 13.1
2001-11-30 10:13:49 51°25.824 3°4.29 28.7 13.6 27.5 13.2
2001-11-30 10:13:53 51°25.838 3°4.299 26.7 13.7 27.6 13.6
2001-11-30 10:13:59 51°25.857 3°4.318 29.2 13.6 28 13.1
2001-11-30 10:14:03 51°25.871 3°4.327 26.5 13.6 28.6 13.3
2001-11-30 10:14:08 51°25.888 3°4.341 27.2 13.6 27 12.8
2001-11-30 10:14:14 51°25.908 3°4.357 26.3 13.6 26.4 12.6
2001-11-30 10:14:19 51°25.924 3°4.372 28 13.6 27.9 12.8
2001-11-30 10:14:24 51°25.941 3°4.385 28.3 13.5 27.7 12.6
2001-11-30 10:14:29 51°25.957 3°4.402 29.8 13.5 29.5 13
2001-11-30 10:14:34 51°25.974 3°4.415 28.8 13.6 30 12.9
2001-11-30 10:14:39 51°25.99 3°4.43 29.3 13.7 29.1 12.9
2001-11-30 10:14:43 51°26.004 3°4.44 26.8 13.6 28 13.1
2001-11-30 10:14:48 51°26.021 3°4.452 24.7 13.4 25.7 12.7
2001-11-30 10:14:52 51°26.034 3°4.462 24.2 13.4 24.5 12.8
2001-11-30 10:14:59 51°26.058 3°4.481 25 13.5 24.9 12.8
2001-11-30 10:15:03 51°26.071 3°4.492 27.5 13.5 26.3 12.8
2001-11-30 10:15:08 51°26.087 3°4.508 30.5 13.6 28.6 12.6
2001-11-30 10:15:11 51°26.097 3°4.518 32.8 13.6 31.9 12.6
2001-11-30 10:15:19 51°26.121 3°4.546 36.3 13.6 33.9 12.6
2001-11-30 10:15:24 51°26.136 3°4.566 39.2 13.7 38.4 13.1
2001-11-30 10:15:29 51°26.149 3°4.587 41.8 13.7 41.1 13
2001-11-30 10:15:31 51°26.154 3°4.596 47 13.7 45.7 12.9
2001-11-30 10:15:39 51°26.172 3°4.635 52.5 13.7 52 13
2001-11-30 10:15:43 51°26.179 3°4.657 60.2 13.7 57.9 13
2001-11-30 10:15:48 51°26.185 3°4.685 68.8 13.5 66 13.1
2001-11-30 10:15:53 51°26.189 3°4.714 77.2 13.4 72.7 13.1
2001-11-30 10:15:59 51°26.19 3°4.75 84.5 13.4 80.7 13.4
2001-11-30 10:16:03 51°26.189 3°4.773 91.8 13.5 88.8 13.6
2001-11-30 10:16:08 51°26.185 3°4.803 100.2 13.5 96.4 13.6
2001-11-30 10:16:14 51°26.18 3°4.838 103.7 13.5 100.4 13.5
2001-11-30 10:16:19 51°26.175 3°4.868 105.8 13.8 105 13.8
2001-11-30 10:16:23 51°26.17 3°4.892 106.8 13.9 106.2 13.6
2001-11-30 10:16:29 51°26.164 3°4.928 106.2 14 105.7 13.4
2001-11-30 10:16:34 51°26.158 3°4.958 108.3 14.1 105.9 13.3
2001-11-30 10:16:39 51°26.15 3°4.987 112.7 14.2 110.6 13.1
2001-11-30 10:16:43 51°26.143 3°5.01 115.2 14.3 113.6 13
2001-11-30 10:16:49 51°26.133 3°5.044 116.7 14.3 114.6 13.1
2001-11-30 10:16:54 51°26.125 3°5.073 116.3 14.3 115.2 13.1
2001-11-30 10:16:59 51°26.116 3°5.102 116.2 14.3 115 13
2001-11-30 10:17:03 51°26.11 3°5.125 115.7 14.4 114.7 12.9
2001-11-30 10:17:09 51°26.1 3°5.16 115.5 14.5 114.5 12.6
2001-11-30 10:17:14 51°26.092 3°5.19 115 14.5 113.9 12.9
2001-11-30 10:17:19 51°26.084 3°5.219 115.2 14.5 113.9 13.1
2001-11-30 10:17:23 51°26.077 3°5.242 115.5 14.4 114.2 13.1
2001-11-30 10:17:29 51°26.067 3°5.277 115.3 14.5 114.5 12.8
2001-11-30 10:17:34 51°26.058 3°5.307 116 14.6 114.6 12.8
2001-11-30 10:17:39 51°26.05 3°5.336 115.8 14.5 114.8 12.8
2001-11-30 10:17:43 51°26.044 3°5.359 116.2 14.5 114.6 12.8
2001-11-30 10:17:49 51°26.033 3°5.394 116.3 14.5 115 12.5
2001-11-30 10:17:54 51°26.025 3°5.424 115.8 14.6 114.8 12.8
2001-11-30 10:17:59 51°26.016 3°5.453 116.2 14.6 115 12.7
2001-11-30 10:18:04 51°26.008 3°5.483 116.7 14.6 115 12.5
2001-11-30 10:18:09 51°26 3°5.512 116.5 14.7 114.9 12.5
2001-11-30 10:18:14 51°25.991 3°5.542 116.5 14.7 115 12.5
2001-11-30 10:18:19 51°25.983 3°5.571 116.3 14.7 114.5 12.6
2001-11-30 10:18:24 51°25.974 3°5.601 116.3 14.7 114.8 12.7
2001-11-30 10:18:29 51°25.966 3°5.631 116 14.7 114.4 12.5
2001-11-30 10:18:34 51°25.957 3°5.66 116.5 14.7 114.6 12.3
2001-11-30 10:18:39 51°25.949 3°5.69 115.8 14.7 114.1 12.7
2001-11-30 10:18:43 51°25.942 3°5.713 116.7 14.6 114.8 12.2
2001-11-30 10:18:49 51°25.933 3°5.749 115.8 14.5 114 12.1
2001-11-30 10:18:54 51°25.924 3°5.778 115.7 14.6 114.4 12.2
2001-11-30 10:18:59 51°25.916 3°5.808 115.7 14.6 113.6 11.8
2001-11-30 10:19:03 51°25.91 3°5.832 115.7 14.6 113.9 12.3
2001-11-30 10:19:09 51°25.9 3°5.867 116.3 14.6 113.8 12
2001-11-30 10:19:14 51°25.892 3°5.897 115.8 14.6 114.2 11.9
2001-11-30 10:19:19 51°25.883 3°5.926 116 14.6 114.2 11.8
2001-11-30 10:19:24 51°25.875 3°5.955 116.3 14.6 114.1 11.8
2001-11-30 10:19:29 51°25.867 3°5.985 115.8 14.6 114.2 11.8
2001-11-30 10:19:34 51°25.859 3°6.015 115.8 14.7 113.3 11.8
2001-11-30 10:19:39 51°25.851 3°6.045 116 14.6 113.9 11.8
2001-11-30 10:19:44 51°25.841 3°6.073 117.3 14.6 114.6 11.9
2001-11-30 10:19:47 51°25.836 3°6.09 119.8 14.6 117.3 11.7
2001-11-30 10:19:53 51°25.824 3°6.125 121.5 14.7 118.9 11.5
2001-11-30 10:19:59 51°25.811 3°6.158 123.3 14.7 120.7 11.7
2001-11-30 10:20:03 51°25.802 3°6.179 125.5 14.5 122.2 11.8
2001-11-30 10:20:09 51°25.789 3°6.212 125.8 14.5 122.5 11.8
2001-11-30 10:20:14 51°25.777 3°6.239 126.7 14.7 123.8 11.8
2001-11-30 10:20:19 51°25.766 3°6.266 127.2 14.8 124.1 12
2001-11-30 10:20:23 51°25.756 3°6.287 127.2 14.7 124.5 12
2001-11-30 10:20:29 51°25.743 3°6.319 127.7 14.6 124.7 11.9
2001-11-30 10:20:34 51°25.731 3°6.346 127.5 14.6 124.9 11.9
2001-11-30 10:20:39 51°25.72 3°6.373 127 14.8 123.8 12
2001-11-30 10:20:44 51°25.708 3°6.401 126.8 14.8 124.2 12.1
2001-11-30 10:20:47 51°25.702 3°6.417 126.2 14.8 123.5 12.1
2001-11-30 10:20:54 51°25.686 3°6.455 126.2 14.6 123.5 12.2
2001-11-30 10:20:59 51°25.675 3°6.482 126 14.6 122.7 12.2
2001-11-30 10:21:03 51°25.666 3°6.504 126 14.8 123.5 12.1
2001-11-30 10:21:09 51°25.653 3°6.538 125.7 14.9 122.1 12.2
2001-11-30 10:21:14 51°25.642 3°6.565 125.7 14.8 122.9 12.2
2001-11-30 10:21:19 51°25.632 3°6.593 125.2 14.7 121.8 12.2
2001-11-30 10:21:24 51°25.621 3°6.621 124.7 14.7 121.6 12.2
2001-11-30 10:21:27 51°25.614 3°6.637 124.8 14.7 121.8 12.2
2001-11-30 10:21:34 51°25.599 3°6.676 124.8 14.8 121.7 12.3
2001-11-30 10:21:39 51°25.588 3°6.704 125 14.7 122 12.1
2001-11-30 10:21:44 51°25.577 3°6.731 125 14.6 121.8 12.1
2001-11-30 10:21:49 51°25.566 3°6.759 125.2 14.7 122.3 12.2
2001-11-30 10:21:54 51°25.555 3°6.786 125.7 14.7 122.6 12.1
2001-11-30 10:21:59 51°25.544 3°6.813 126.2 14.7 123 12.1
2001-11-30 10:22:03 51°25.535 3°6.835 127 14.7 124 12.1
2001-11-30 10:22:09 51°25.521 3°6.868 127.5 14.8 123.7 12
2001-11-30 10:22:14 51°25.509 3°6.895 127.2 14.8 124.3 12
2001-11-30 10:22:19 51°25.498 3°6.922 127 14.7 124.1 12
2001-11-30 10:22:24 51°25.487 3°6.949 127 14.7 123.7 11.9
2001-11-30 10:22:27 51°25.48 3°6.966 127.7 14.7 123.8 11.9
2001-11-30 10:22:34 51°25.465 3°7.004 127.2 14.8 123.4 11.8
2001-11-30 10:22:39 51°25.453 3°7.031 126.7 14.8 123.4 11.7
2001-11-30 10:22:43 51°25.444 3°7.053 127 14.8 123.2 11.7
2001-11-30 10:22:49 51°25.43 3°7.086 127 14.8 124 11.6
2001-11-30 10:22:54 51°25.419 3°7.113 127.7 14.8 123.4 11.6
2001-11-30 10:22:59 51°25.407 3°7.14 127.7 14.8 124.5 11.5
2001-11-30 10:23:04 51°25.396 3°7.167 127.5 14.8 124.1 11.5
2001-11-30 10:23:09 51°25.384 3°7.194 127.5 14.7 124.1 11.5
2001-11-30 10:23:14 51°25.373 3°7.221 126.8 14.7 123.7 11.3
2001-11-30 10:23:19 51°25.362 3°7.249 127 14.7 123.1 11.3
2001-11-30 10:23:23 51°25.353 3°7.271 126.8 14.8 123.3 11.2
2001-11-30 10:23:29 51°25.34 3°7.304 126.8 14.8 123.1 11.2
2001-11-30 10:23:34 51°25.328 3°7.331 127 14.7 123.3 11.1
2001-11-30 10:23:39 51°25.317 3°7.358 127.2 14.7 123.7 11
2001-11-30 10:23:43 51°25.308 3°7.38 126.7 14.7 123.8 10.9
2001-11-30 10:23:49 51°25.294 3°7.412 127.2 14.8 124.1 10.8
2001-11-30 10:23:54 51°25.283 3°7.439 127.3 14.8 123.8 10.8
2001-11-30 10:23:59 51°25.272 3°7.467 126.5 14.8 123 10.7
2001-11-30 10:24:03 51°25.262 3°7.489 127.2 14.8 123.5 10.6
2001-11-30 10:24:09 51°25.249 3°7.522 127 14.8 123.6 10.5
2001-11-30 10:24:14 51°25.238 3°7.549 126.8 14.8 122.8 10.4
2001-11-30 10:24:19 51°25.227 3°7.577 126.8 14.7 122.9 10.4
2001-11-30 10:24:24 51°25.216 3°7.604 127 14.7 123 10.3
2001-11-30 10:24:29 51°25.204 3°7.631 127.2 14.8 123.4 10.2
2001-11-30 10:24:34 51°25.193 3°7.658 127.5 14.8 123.2 10.2
2001-11-30 10:24:39 51°25.182 3°7.686 127.3 14.8 123.1 10.1
2001-11-30 10:24:43 51°25.173 3°7.708 126.8 14.8 123 10
2001-11-30 10:24:49 51°25.159 3°7.741 127.5 14.9 123.3 10
2001-11-30 10:24:54 51°25.149 3°7.769 127.2 14.8 123.3 10
2001-11-30 10:24:59 51°25.137 3°7.796 127 14.7 122.7 9.9
2001-11-30 10:25:04 51°25.127 3°7.824 126.5 14.7 122.9 9.9
2001-11-30 10:25:09 51°25.116 3°7.852 125.5 14.7 121.4 9.7
2001-11-30 10:25:14 51°25.106 3°7.88 124.8 14.8 121 9.7
2001-11-30 10:25:19 51°25.095 3°7.908 124.3 14.8 120.7 9.6
2001-11-30 10:25:23 51°25.087 3°7.931 124.7 14.8 120.4 9.7
2001-11-30 10:25:29 51°25.074 3°7.965 125.3 14.8 121 9.7
2001-11-30 10:25:34 51°25.063 3°7.993 125.2 14.8 121.1 9.7
2001-11-30 10:25:39 51°25.053 3°8.021 124.8 14.9 121.1 9.7
2001-11-30 10:25:43 51°25.044 3°8.044 124.8 14.8 121.1 9.7
2001-11-30 10:25:49 51°25.032 3°8.078 124.8 14.9 120.9 9.8
2001-11-30 10:25:54 51°25.021 3°8.106 125.2 14.9 121 9.8
2001-11-30 10:25:59 51°25.011 3°8.135 124.5 15 120.3 10.1
2001-11-30 10:26:04 51°24.999 3°8.163 124.5 14.9 120.7 10.1
2001-11-30 10:26:09 51°24.989 3°8.192 125 15 120.5 10.2
2001-11-30 10:26:14 51°24.978 3°8.22 124.8 15 121.1 10.3
2001-11-30 10:26:19 51°24.968 3°8.249 124.7 15 120.7 10.3
2001-11-30 10:26:23 51°24.959 3°8.272 124.8 15.1 120.7 10.5
2001-11-30 10:26:27 51°24.95 3°8.295 125.7 15.1 121.4 10.5
2001-11-30 10:26:34 51°24.935 3°8.335 125 15.1 121.1 10.6
2001-11-30 10:26:39 51°24.925 3°8.364 125.3 15.1 121 10.6
2001-11-30 10:26:44 51°24.914 3°8.393 125.3 15.1 121 10.7
2001-11-30 10:26:49 51°24.904 3°8.421 124.8 15.1 120.5 10.7
2001-11-30 10:26:54 51°24.893 3°8.45 125 15.1 120.6 10.8
2001-11-30 10:26:59 51°24.882 3°8.48 124.3 15.2 120.4 10.9
2001-11-30 10:27:03 51°24.874 3°8.503 124.7 15.1 120.3 10.9
2001-11-30 10:27:09 51°24.862 3°8.538 124.3 15 120.6 11
2001-11-30 10:27:14 51°24.851 3°8.566 124.3 15 119.5 11
2001-11-30 10:27:19 51°24.841 3°8.596 123.8 15.1 119.2 11.1
2001-11-30 10:27:24 51°24.831 3°8.625 123.2 15.1 118.8 11.1
2001-11-30 10:27:29 51°24.82 3°8.654 123.3 15.1 118.9 11.1
2001-11-30 10:27:34 51°24.811 3°8.684 122.5 15.2 118.3 11.2
2001-11-30 10:27:39 51°24.801 3°8.713 122.3 15 118.3 11.2
2001-11-30 10:27:44 51°24.792 3°8.743 122.2 15 117.9 11.2
2001-11-30 10:27:47 51°24.786 3°8.761 121.8 15.2 117.5 11.3
2001-11-30 10:27:54 51°24.772 3°8.802 122.2 15.2 117.6 11.4
2001-11-30 10:27:59 51°24.762 3°8.832 122.5 15 118.2 11.4
2001-11-30 10:28:03 51°24.754 3°8.855 122.8 15 118.5 11.4
2001-11-30 10:28:09 51°24.742 3°8.891 123 15.1 118.4 11.4
2001-11-30 10:28:14 51°24.732 3°8.919 123.3 15 118.6 11.5
2001-11-30 10:28:19 51°24.723 3°8.949 122.8 15 118.3 11.4
2001-11-30 10:28:23 51°24.714 3°8.973 123.2 15.1 118.4 11.5
2001-11-30 10:28:29 51°24.702 3°9.009 123.3 15.3 118.3 11.7
2001-11-30 10:28:34 51°24.692 3°9.038 123.2 15.2 118.3 11.8
2001-11-30 10:28:39 51°24.682 3°9.068 123 15.1 118 11.9
2001-11-30 10:28:44 51°24.672 3°9.097 123.2 15.1 118.2 11.9
2001-11-30 10:28:47 51°24.666 3°9.115 123.2 15.2 118.4 11.9
2001-11-30 10:28:54 51°24.653 3°9.157 122.7 15.2 118 12
2001-11-30 10:28:59 51°24.642 3°9.187 122.8 15.2 118.2 12.1
2001-11-30 10:29:04 51°24.633 3°9.217 122.7 15.2 117.7 12.2
2001-11-30 10:29:09 51°24.623 3°9.246 123 15.2 117.9 12.2
2001-11-30 10:29:14 51°24.614 3°9.277 122.3 15.2 117 12.3
2001-11-30 10:29:19 51°24.603 3°9.307 122.8 15.3 117.8 12.4
2001-11-30 10:29:24 51°24.594 3°9.336 123.3 15.2 117.3 12.6
2001-11-30 10:29:27 51°24.588 3°9.354 122.2 15 117.1 12.6
2001-11-30 10:29:34 51°24.577 3°9.397 119.3 15.1 114.9 12.7
2001-11-30 10:29:39 51°24.57 3°9.429 115.3 15.2 111.4 12.8
2001-11-30 10:29:44 51°24.564 3°9.462 111.3 15.2 108 12.9
2001-11-30 10:29:49 51°24.561 3°9.494 106.7 15 103.2 13
2001-11-30 10:29:54 51°24.558 3°9.528 102.2 15 99.5 12.9
2001-11-30 10:29:59 51°24.558 3°9.561 96.7 15.1 94 13
2001-11-30 10:30:03 51°24.558 3°9.588 92.3 15.1 90.9 13.1
2001-11-30 10:30:09 51°24.56 3°9.628 89 15.1 87.6 13.1
2001-11-30 10:30:14 51°24.562 3°9.661 87.3 15.1 85.7 13.1
2001-11-30 10:30:19 51°24.564 3°9.695 87.7 15.1 85.1 13.1
2001-11-30 10:30:24 51°24.564 3°9.729 89.5 15.2 86.2 13.2
2001-11-30 10:30:29 51°24.566 3°9.762 89.5 15.3 86.9 13.1
2001-11-30 10:30:34 51°24.567 3°9.796 89.7 15.3 87.1 13.2
2001-11-30 10:30:39 51°24.568 3°9.83 89.3 15.3 86.4 13.1
2001-11-30 10:30:44 51°24.57 3°9.864 89 15.3 86.5 13.2
2001-11-30 10:30:47 51°24.571 3°9.885 87.7 15.4 85.3 13.2
2001-11-30 10:30:53 51°24.573 3°9.925 86.7 15.4 84.6 13.2
2001-11-30 10:30:59 51°24.576 3°9.966 86 15.3 84.1 13.2
2001-11-30 10:31:03 51°24.577 3°9.993 85.3 15.3 83.4 13.1
2001-11-30 10:31:09 51°24.58 3°10.034 84 15.3 82.4 13.1
2001-11-30 10:31:14 51°24.583 3°10.068 84 15.4 82.1 13.1
2001-11-30 10:31:19 51°24.586 3°10.101 84 15.4 81.8 13.2
2001-11-30 10:31:23 51°24.589 3°10.128 83.3 15.3 81.9 13.2
2001-11-30 10:31:29 51°24.593 3°10.168 83.2 15.2 81.4 13.2
2001-11-30 10:31:34 51°24.596 3°10.202 84 15.3 81.7 13.2
2001-11-30 10:31:39 51°24.599 3°10.236 83.8 15.4 81.4 13
2001-11-30 10:31:44 51°24.604 3°10.269 81.5 15.4 80 13.2
2001-11-30 10:31:47 51°24.607 3°10.288 77.7 15.1 76.8 13.1
2001-11-30 10:31:54 51°24.616 3°10.333 74 15.1 74 13.1
2001-11-30 10:31:59 51°24.623 3°10.364 72.2 15.2 70.9 13.2
2001-11-30 10:32:04 51°24.63 3°10.396 71.5 15.3 70.1 13.2
2001-11-30 10:32:09 51°24.638 3°10.427 70.8 15.2 69.3 13.3
2001-11-30 10:32:14 51°24.646 3°10.458 69.8 15.1 69.1 13.2
2001-11-30 10:32:19 51°24.654 3°10.49 69.2 15.1 67.4 13.2
2001-11-30 10:32:23 51°24.661 3°10.514 68.5 15.2 67.1 13.2
2001-11-30 10:32:29 51°24.672 3°10.551 66.5 15.1 65.6 13.3
2001-11-30 10:32:33 51°24.679 3°10.574 63.7 15.1 64 13.2
2001-11-30 10:32:39 51°24.692 3°10.609 61.3 15 60.8 13.1
2001-11-30 10:32:43 51°24.7 3°10.632 60.5 15.1 60.1 13.1
2001-11-30 10:32:49 51°24.714 3°10.666 58.7 15.1 58.9 13
2001-11-30 10:32:54 51°24.725 3°10.694 57.8 15.1 57.8 13.1
2001-11-30 10:32:59 51°24.737 3°10.722 56.8 15 56.6 13
2001-11-30 10:33:04 51°24.749 3°10.749 55.7 15 55.9 13
2001-11-30 10:33:07 51°24.756 3°10.764 54 15 53.9 12.8
2001-11-30 10:33:14 51°24.775 3°10.801 51.5 15 52.3 12.8
2001-11-30 10:33:19 51°24.788 3°10.825 49.2 14.9 49.6 12.8
2001-11-30 10:33:24 51°24.802 3°10.85 47.3 14.9 48.2 12.8
2001-11-30 10:33:29 51°24.817 3°10.872 44.8 14.9 45.7 12.6
2001-11-30 10:33:34 51°24.832 3°10.895 44.2 14.8 44.9 12.6
2001-11-30 10:33:39 51°24.847 3°10.918 43.2 14.7 43.5 12.7
2001-11-30 10:33:43 51°24.859 3°10.934 41 14.6 42.2 12.7
2001-11-30 10:33:49 51°24.878 3°10.957 36.7 14.5 38.9 12.7
2001-11-30 10:33:54 51°24.895 3°10.97 29.5 14.1 33 12.3
2001-11-30 10:33:59 51°24.913 3°10.98 21 13.6 23.9 12.6
2001-11-30 10:34:04 51°24.93 3°10.985 12.5 13.2 17.2 12.5
2001-11-30 10:34:09 51°24.948 3°10.986 4.2 12.7 7.1 12.4
2001-11-30 10:34:14 51°24.965 3°10.983 355.7 12.4 0.2 12.3
2001-11-30 10:34:19 51°24.981 3°10.977 347 11.9 350 12.1
2001-11-30 10:34:23 51°24.993 3°10.97 339.5 11.8 344.1 12
2001-11-30 10:34:27 51°25.004 3°10.96 333.7 11.6 335.8 11.9
2001-11-30 10:34:33 51°25.021 3°10.946 329.8 11.7 332.3 11.8
2001-11-30 10:34:39 51°25.037 3°10.928 325.7 11.7 327.2 11.5
2001-11-30 10:34:43 51°25.047 3°10.915 322 11.7 324.2 11.5
2001-11-30 10:34:49 51°25.061 3°10.894 317.3 11.7 318.7 11.4
2001-11-30 10:34:54 51°25.072 3°10.875 314 11.7 315.6 11.3
2001-11-30 10:34:59 51°25.083 3°10.854 311.3 11.7 311.4 11.2
2001-11-30 10:35:03 51°25.09 3°10.838 308.7 11.7 308.9 11
2001-11-30 10:35:09 51°25.102 3°10.813 306.8 11.7 306.8 11.1
2001-11-30 10:35:14 51°25.111 3°10.791 305.5 11.7 305 11.1
2001-11-30 10:35:19 51°25.119 3°10.769 304 11.8 303 10.9
2001-11-30 10:35:24 51°25.128 3°10.746 302.8 11.8 302 11
2001-11-30 10:35:27 51°25.133 3°10.733 301.5 11.7 300.4 10.9
2001-11-30 10:35:34 51°25.144 3°10.701 300.7 11.8 299.7 10.9
2001-11-30 10:35:39 51°25.153 3°10.679 301.8 11.8 300.6 10.7
2001-11-30 10:35:44 51°25.162 3°10.657 303.8 11.9 302 10.8
2001-11-30 10:35:49 51°25.172 3°10.636 306.5 11.9 305.3 10.7
2001-11-30 10:35:54 51°25.182 3°10.615 307.5 11.9 306.5 10.7
2001-11-30 10:35:59 51°25.192 3°10.594 309.5 11.9 308.5 10.7
2001-11-30 10:36:03 51°25.201 3°10.578 310.3 11.9 309.3 10.7
2001-11-30 10:36:09 51°25.213 3°10.553 310 12 309.3 10.6
2001-11-30 10:36:14 51°25.224 3°10.532 309.8 12 308.8 10.4
2001-11-30 10:36:19 51°25.235 3°10.512 310.8 12 309.5 10.5
2001-11-30 10:36:24 51°25.245 3°10.491 311.2 12 309.9 10.4
2001-11-30 10:36:29 51°25.256 3°10.471 311.2 12 310.3 10.3
2001-11-30 10:36:34 51°25.267 3°10.451 311.3 12 310.4 10.2
2001-11-30 10:36:39 51°25.278 3°10.43 310.8 12 310.1 10.2
2001-11-30 10:36:43 51°25.286 3°10.413 310.2 12 309.3 10.2
2001-11-30 10:36:49 51°25.299 3°10.389 310.2 12 309.3 10.1
2001-11-30 10:36:54 51°25.309 3°10.368 309.7 12 308.6 10.1
2001-11-30 10:36:59 51°25.32 3°10.347 310.3 12 309.2 10
2001-11-30 10:37:04 51°25.33 3°10.326 310.2 12 308.6 9.9
2001-11-30 10:37:07 51°25.336 3°10.314 310.7 12 309.3 9.9
2001-11-30 10:37:14 51°25.351 3°10.286 310.7 12 309.2 9.8
2001-11-30 10:37:19 51°25.362 3°10.265 311.2 11.9 309.4 9.8
2001-11-30 10:37:24 51°25.372 3°10.245 311.5 11.9 309.7 9.6
2001-11-30 10:37:29 51°25.383 3°10.224 311.2 11.9 309.6 9.6
2001-11-30 10:37:34 51°25.393 3°10.204 311 11.9 309.5 9.5
2001-11-30 10:37:39 51°25.404 3°10.183 310.5 11.9 309 9.4
2001-11-30 10:37:44 51°25.414 3°10.163 310.5 11.9 308.8 9.3
2001-11-30 10:37:49 51°25.425 3°10.142 310.7 11.9 309 9.5
2001-11-30 10:37:54 51°25.435 3°10.122 311.2 11.9 309.3 9.4
2001-11-30 10:37:59 51°25.445 3°10.102 311 11.9 309.1 9.4
2001-11-30 10:38:03 51°25.454 3°10.086 311.3 11.9 309.6 9.4
2001-11-30 10:38:09 51°25.467 3°10.061 310.8 11.9 309.6 9.3
2001-11-30 10:38:14 51°25.478 3°10.041 311.3 11.9 309.7 9.3
2001-11-30 10:38:19 51°25.487 3°10.02 310.7 11.9 309.2 9.3
2001-11-30 10:38:23 51°25.496 3°10.005 311 11.9 309.6 9.3
2001-11-30 10:38:27 51°25.505 3°9.988 310.7 11.8 309.1 9.3
2001-11-30 10:38:34 51°25.52 3°9.96 311.5 11.8 309.9 9.3
2001-11-30 10:38:39 51°25.53 3°9.939 310.8 11.9 309.3 9.3
2001-11-30 10:38:44 51°25.54 3°9.92 311 11.9 309.8 9.3
2001-11-30 10:38:49 51°25.55 3°9.899 310.5 11.8 309 9
2001-11-30 10:38:54 51°25.561 3°9.879 311 11.9 309.6 9.3
2001-11-30 10:38:59 51°25.572 3°9.858 311.2 11.9 309.4 9.2
2001-11-30 10:39:03 51°25.58 3°9.843 311.3 11.9 310.2 9.3
2001-11-30 10:39:09 51°25.593 3°9.818 311.5 11.9 309.8 9.3
2001-11-30 10:39:14 51°25.604 3°9.798 311.8 11.9 310.6 9.2
2001-11-30 10:39:19 51°25.614 3°9.778 311.3 11.9 309.9 9.4
2001-11-30 10:39:23 51°25.623 3°9.762 311 11.9 310.2 9.3
2001-11-30 10:39:29 51°25.636 3°9.737 310.7 11.9 309.7 9.4
2001-11-30 10:39:33 51°25.644 3°9.721 310.7 11.9 309.5 9.4
2001-11-30 10:39:39 51°25.657 3°9.696 310.8 11.9 309.9 9.4
2001-11-30 10:39:43 51°25.665 3°9.68 310.7 11.9 309.5 9.5
2001-11-30 10:39:49 51°25.678 3°9.655 311.2 11.9 309.9 9.5
2001-11-30 10:39:54 51°25.688 3°9.635 311.2 12 310.2 9.4
2001-11-30 10:39:59 51°25.699 3°9.615 311.5 12 310.3 9.5
2001-11-30 10:40:03 51°25.708 3°9.599 311.5 12 310.5 9.5
2001-11-30 10:40:09 51°25.72 3°9.574 311.3 12 310.4 9.5
2001-11-30 10:40:14 51°25.731 3°9.554 311 12 310.1 9.6
2001-11-30 10:40:19 51°25.742 3°9.534 311 11.9 310.2 9.6
2001-11-30 10:40:24 51°25.752 3°9.513 311.2 11.9 310 9.6
2001-11-30 10:40:27 51°25.759 3°9.501 311.3 11.9 310.2 9.6
2001-11-30 10:40:34 51°25.774 3°9.473 311.2 12 310 9.8
2001-11-30 10:40:39 51°25.785 3°9.453 311.2 12 310.2 9.8
2001-11-30 10:40:44 51°25.795 3°9.432 311 12 310.1 9.9
2001-11-30 10:40:49 51°25.806 3°9.412 311 12 310.2 9.9
2001-11-30 10:40:54 51°25.817 3°9.391 311 12 310.2 9.9
2001-11-30 10:40:59 51°25.827 3°9.371 310.8 12 309.9 10
2001-11-30 10:41:03 51°25.836 3°9.354 310.7 12.1 309.9 10
2001-11-30 10:41:09 51°25.849 3°9.33 310.8 12.1 309.9 10
2001-11-30 10:41:14 51°25.86 3°9.31 311.2 12 310.5 10.1
2001-11-30 10:41:19 51°25.871 3°9.289 311 12.1 310.2 10.1
2001-11-30 10:41:24 51°25.882 3°9.269 310.8 12.1 310.6 10
2001-11-30 10:41:29 51°25.892 3°9.248 311 12.1 310.1 10.2
2001-11-30 10:41:34 51°25.904 3°9.228 311.3 12.1 310.6 10.3
2001-11-30 10:41:39 51°25.914 3°9.207 311 12.1 310.5 10.4
2001-11-30 10:41:43 51°25.923 3°9.191 311 12.1 310.5 10.4
2001-11-30 10:41:49 51°25.936 3°9.167 311.2 12.1 310.7 10.4
2001-11-30 10:41:54 51°25.947 3°9.146 311.2 12.1 310.6 10.5
2001-11-30 10:41:59 51°25.958 3°9.125 311.2 12.2 310.6 10.6
2001-11-30 10:42:03 51°25.967 3°9.109 310.8 12.2 310.4 10.7
2001-11-30 10:42:07 51°25.976 3°9.092 311.3 12.2 310.7 10.8
2001-11-30 10:42:14 51°25.991 3°9.063 311 12.2 310.3 10.9
2001-11-30 10:42:19 51°26.002 3°9.043 311 12.2 310.5 10.9
2001-11-30 10:42:24 51°26.013 3°9.022 311.2 12.2 310.4 11.1
2001-11-30 10:42:29 51°26.024 3°9.002 311.2 12.2 310.5 11.2
2001-11-30 10:42:34 51°26.035 3°8.981 310.8 12.2 310.3 11.2
2001-11-30 10:42:39 51°26.046 3°8.96 310.3 12.2 310 11.2
2001-11-30 10:42:43 51°26.055 3°8.943 310.5 12.2 309.8 11.2
2001-11-30 10:42:49 51°26.067 3°8.919 310.2 12.2 309.9 11.2
2001-11-30 10:42:54 51°26.078 3°8.897 309.8 12.2 309.4 11.3
2001-11-30 10:42:59 51°26.089 3°8.877 310.2 12.2 310 11.5
2001-11-30 10:43:03 51°26.098 3°8.86 310 12.2 309.6 11.5
2001-11-30 10:43:09 51°26.111 3°8.835 310.3 12.2 309.9 11.5
2001-11-30 10:43:14 51°26.122 3°8.814 309.7 12.3 309.6 11.9
2001-11-30 10:43:19 51°26.133 3°8.793 310.2 12.3 310.3 11.7
2001-11-30 10:43:24 51°26.143 3°8.772 309.8 12.2 309.8 11.6
2001-11-30 10:43:29 51°26.155 3°8.752 309.8 12.2 310.3 11.5
2001-11-30 10:43:34 51°26.165 3°8.731 310 12.2 309.9 11.6
2001-11-30 10:43:39 51°26.177 3°8.71 310 12.2 310.2 11.8
2001-11-30 10:43:43 51°26.185 3°8.693 309.7 12.2 309.9 11.9
2001-11-30 10:43:49 51°26.199 3°8.668 309.8 12.3 309.9 11.7
2001-11-30 10:43:54 51°26.209 3°8.647 310 12.3 309.8 12.1
2001-11-30 10:43:59 51°26.22 3°8.627 310.2 12.2 310.3 12.2
2001-11-30 10:44:04 51°26.231 3°8.606 309.7 12.2 309.9 12.2
2001-11-30 10:44:07 51°26.238 3°8.593 310.7 12.3 310.4 12.4
2001-11-30 10:44:14 51°26.253 3°8.564 309.5 12.3 309.8 12.4
2001-11-30 10:44:19 51°26.264 3°8.543 308.8 12.3 309.1 12.4
2001-11-30 10:44:24 51°26.274 3°8.521 308 12.3 308.2 12.5
2001-11-30 10:44:29 51°26.285 3°8.499 307.5 12.3 307.4 12.6
2001-11-30 10:44:34 51°26.295 3°8.477 307.3 12.3 306.7 12.8
2001-11-30 10:44:39 51°26.305 3°8.455 307.2 12.3 306.6 12.7
2001-11-30 10:44:43 51°26.313 3°8.438 307.3 12.3 306.6 12.5
2001-11-30 10:44:49 51°26.326 3°8.412 307.5 12.3 306.6 12.5
2001-11-30 10:44:54 51°26.336 3°8.39 307.8 12.3 307.1 12.5
2001-11-30 10:44:59 51°26.346 3°8.368 308.2 12.3 307.4 12.5
2001-11-30 10:45:03 51°26.355 3°8.351 307.8 12.3 307.5 12.5
2001-11-30 10:45:09 51°26.367 3°8.325 308 12.3 307.2 12.6
2001-11-30 10:45:14 51°26.378 3°8.303 308.3 12.3 307.7 12.6
2001-11-30 10:45:19 51°26.388 3°8.282 307.7 12.3 307.6 12.7
2001-11-30 10:45:23 51°26.396 3°8.264 307.8 12.3 307.7 12.8
2001-11-30 10:45:29 51°26.409 3°8.238 308.2 12.3 307.3 12.9
2001-11-30 10:45:34 51°26.419 3°8.217 308.3 12.3 308 12.8
2001-11-30 10:45:39 51°26.43 3°8.195 308.2 12.3 307.7 13.1
2001-11-30 10:45:43 51°26.438 3°8.178 308.5 12.3 308.3 12.9
2001-11-30 10:45:49 51°26.451 3°8.152 308.2 12.3 307.9 13.1
2001-11-30 10:45:54 51°26.461 3°8.131 308.5 12.3 308.5 12.9
2001-11-30 10:45:59 51°26.472 3°8.11 308.2 12.3 308.1 12.8
2001-11-30 10:46:03 51°26.48 3°8.092 308.3 12.3 308 12.6
2001-11-30 10:46:09 51°26.493 3°8.066 307.8 12.3 307.6 12.4
2001-11-30 10:46:14 51°26.503 3°8.045 308 12.2 307.7 12.4
2001-11-30 10:46:19 51°26.514 3°8.024 307.7 12.2 307.6 12.3
2001-11-30 10:46:24 51°26.524 3°8.002 307.5 12.2 307.6 12.4
2001-11-30 10:46:29 51°26.534 3°7.98 307.7 12.2 307.4 12.5
2001-11-30 10:46:34 51°26.545 3°7.959 307.7 12.2 307.8 12.6
2001-11-30 10:46:39 51°26.555 3°7.937 307.7 12.2 307.4 12.7
2001-11-30 10:46:43 51°26.564 3°7.92 307.8 12.2 308 12.6
2001-11-30 10:46:49 51°26.576 3°7.894 307.8 12.3 307.5 12.8
2001-11-30 10:46:54 51°26.587 3°7.873 308.2 12.3 308.4 12.8
2001-11-30 10:46:59 51°26.597 3°7.851 308 12.3 307.6 12.6
2001-11-30 10:47:04 51°26.608 3°7.83 308.8 12.3 308.6 12.8
2001-11-30 10:47:07 51°26.614 3°7.817 307.7 12.2 307.5 12.9
2001-11-30 10:47:14 51°26.629 3°7.787 308.2 12.3 308.1 12.9
2001-11-30 10:47:19 51°26.639 3°7.765 307.7 12.3 307.6 13
2001-11-30 10:47:24 51°26.649 3°7.744 308.2 12.3 308.1 13
2001-11-30 10:47:29 51°26.66 3°7.722 308 12.3 307.6 13
2001-11-30 10:47:34 51°26.67 3°7.701 308.3 12.3 308.2 13.1
2001-11-30 10:47:39 51°26.681 3°7.68 308.2 12.3 308.1 13.2
2001-11-30 10:47:43 51°26.689 3°7.663 308.5 12.3 308.4 13.1
2001-11-30 10:47:49 51°26.702 3°7.637 308 12.3 308.3 13.2
2001-11-30 10:47:54 51°26.712 3°7.616 308.3 12.3 308.6 13.2
2001-11-30 10:47:59 51°26.723 3°7.594 307.8 12.3 308.2 13.3
2001-11-30 10:48:03 51°26.731 3°7.577 308 12.3 307.9 13.3
2001-11-30 10:48:09 51°26.744 3°7.551 308 12.3 308.3 13.3
2001-11-30 10:48:14 51°26.755 3°7.53 307.8 12.3 307.9 13.4
2001-11-30 10:48:19 51°26.766 3°7.508 308.2 12.3 308.3 13.4
2001-11-30 10:48:24 51°26.776 3°7.487 307.8 12.3 307.8 13.5
2001-11-30 10:48:29 51°26.787 3°7.465 308.2 12.4 308.1 13.5
2001-11-30 10:48:34 51°26.797 3°7.443 308 12.3 307.6 13.6
2001-11-30 10:48:39 51°26.808 3°7.422 308.3 12.3 308.5 13.7
2001-11-30 10:48:44 51°26.818 3°7.4 307.8 12.4 307.9 13.7
2001-11-30 10:48:49 51°26.829 3°7.379 307.8 12.3 307.8 13.7
2001-11-30 10:48:54 51°26.839 3°7.357 306.8 12.3 307.4 13.8
2001-11-30 10:48:59 51°26.85 3°7.335 306.8 12.3 306.9 13.9
2001-11-30 10:49:04 51°26.86 3°7.313 306.8 12.4 306.9 13.9
2001-11-30 10:49:07 51°26.866 3°7.3 306.8 12.4 306.9 13.9
2001-11-30 10:49:14 51°26.881 3°7.269 307 12.4 307.2 14
2001-11-30 10:49:19 51°26.891 3°7.247 306.8 12.4 307.2 14.1
2001-11-30 10:49:24 51°26.901 3°7.226 307 12.4 307.1 14.1
2001-11-30 10:49:29 51°26.912 3°7.204 307.2 12.3 307.4 14.2
2001-11-30 10:49:34 51°26.922 3°7.182 307.2 12.3 307.2 14.2
2001-11-30 10:49:39 51°26.933 3°7.16 307 12.4 307.2 14.3
2001-11-30 10:49:43 51°26.941 3°7.142 306.8 12.4 306.7 14.3
2001-11-30 10:49:49 51°26.953 3°7.116 306.5 12.4 306.9 14.4
2001-11-30 10:49:54 51°26.963 3°7.094 306.8 12.4 306.8 14.4
2001-11-30 10:49:59 51°26.974 3°7.072 307 12.4 307.5 14.5
2001-11-30 10:50:03 51°26.982 3°7.055 307.2 12.4 307.1 14.5
2001-11-30 10:50:09 51°26.995 3°7.029 307.2 12.4 307.8 14.5
2001-11-30 10:50:14 51°27.005 3°7.007 307 12.4 307 14.6
2001-11-30 10:50:19 51°27.016 3°6.985 307.2 12.4 307.8 14.7
2001-11-30 10:50:24 51°27.026 3°6.964 306.7 12.3 307.1 14.6
2001-11-30 10:50:29 51°27.037 3°6.942 307.5 12.3 307.8 14.8
2001-11-30 10:50:34 51°27.047 3°6.92 307.2 12.3 307.3 14.8
2001-11-30 10:50:39 51°27.058 3°6.899 307.3 12.4 308 14.9
2001-11-30 10:50:43 51°27.066 3°6.881 307.2 12.4 307.5 14.8
2001-11-30 10:50:49 51°27.079 3°6.855 307.3 12.4 308.1 14.9
2001-11-30 10:50:54 51°27.089 3°6.833 307.2 12.4 307.2 15
2001-11-30 10:50:59 51°27.1 3°6.812 307.3 12.4 307.8 15.1
2001-11-30 10:51:04 51°27.11 3°6.79 306.8 12.4 307.1 15.1
2001-11-30 10:51:09 51°27.12 3°6.768 306.7 12.3 307.2 15.2
2001-11-30 10:51:14 51°27.13 3°6.746 306.5 12.3 306.7 15.2
2001-11-30 10:51:19 51°27.141 3°6.725 306.8 12.3 307.2 15.3
2001-11-30 10:51:24 51°27.151 3°6.703 307 12.3 307 15.3
2001-11-30 10:51:27 51°27.158 3°6.69 307.2 12.3 307.4 15.3
2001-11-30 10:51:34 51°27.172 3°6.659 307 12.3 307.3 15.4
2001-11-30 10:51:39 51°27.183 3°6.637 307.2 12.4 307.5 15.5
2001-11-30 10:51:43 51°27.191 3°6.62 306.7 12.4 307.3 15.5
2001-11-30 10:51:49 51°27.204 3°6.594 307 12.4 307.4 15.6
2001-11-30 10:51:54 51°27.214 3°6.572 306.8 12.4 307.5 15.6
2001-11-30 10:51:59 51°27.224 3°6.549 306.5 12.4 306.9 15.6
2001-11-30 10:52:03 51°27.233 3°6.532 307 12.4 307.4 15.8
2001-11-30 10:52:09 51°27.245 3°6.505 307.2 12.4 307 15.7
2001-11-30 10:52:14 51°27.256 3°6.483 307 12.4 307.7 15.9
2001-11-30 10:52:19 51°27.267 3°6.461 306.8 12.5 307.3 15.9
2001-11-30 10:52:23 51°27.275 3°6.444 306.7 12.5 307.9 15.9
2001-11-30 10:52:29 51°27.288 3°6.417 307 12.5 307 16
2001-11-30 10:52:34 51°27.298 3°6.396 307.3 12.5 307.8 16.1
2001-11-30 10:52:39 51°27.309 3°6.374 307.5 12.5 307.6 16.1
2001-11-30 10:52:44 51°27.32 3°6.352 307.7 12.5 308.4 16.2
2001-11-30 10:52:49 51°27.33 3°6.33 307.3 12.5 307.5 16.2
2001-11-30 10:52:54 51°27.341 3°6.308 307.7 12.5 308.3 16.2
2001-11-30 10:52:59 51°27.351 3°6.286 307.2 12.4 307.2 16.2
2001-11-30 10:53:03 51°27.36 3°6.269 307 12.5 307.8 16.2
2001-11-30 10:53:09 51°27.372 3°6.242 306.8 12.4 306.7 16.2
2001-11-30 10:53:14 51°27.382 3°6.22 307 12.4 307.1 16.3
2001-11-30 10:53:19 51°27.392 3°6.198 305.3 12.4 306 16.4
2001-11-30 10:53:24 51°27.402 3°6.175 305.3 12.4 305.6 16.3
2001-11-30 10:53:27 51°27.408 3°6.162 306 12.4 306.9 16.4
2001-11-30 10:53:34 51°27.425 3°6.134 310 12.4 309.5 16.4
2001-11-30 10:53:39 51°27.438 3°6.117 317.3 12.3 317.8 16.4
2001-11-30 10:53:44 51°27.453 3°6.104 325.5 12.3 325.1 16.5
2001-11-30 10:53:49 51°27.47 3°6.094 333.3 12.4 335.2 16.5
2001-11-30 10:53:54 51°27.486 3°6.087 341.3 12.5 341.4 16.6
2001-11-30 10:53:59 51°27.504 3°6.083 348 12.7 350 16.6
2001-11-30 10:54:03 51°27.518 3°6.083 355.8 12.8 355.3 16.7
2001-11-30 10:54:09 51°27.54 3°6.086 0.7 13 2 16.8
2001-11-30 10:54:14 51°27.558 3°6.087 1.7 13.1 3.3 16.9
2001-11-30 10:54:19 51°27.577 3°6.089 1.2 13.2 3.7 16.9
2001-11-30 10:54:24 51°27.595 3°6.09 359.3 13.3 2.3 17
2001-11-30 10:54:29 51°27.614 3°6.089 357.3 13.3 359.7 17
2001-11-30 10:54:34 51°27.632 3°6.087 354 13.3 357.4 17
2001-11-30 10:54:39 51°27.651 3°6.084 353.3 13.4 355.7 17
2001-11-30 10:54:43 51°27.666 3°6.083 353.7 13.4 355.7 17
2001-11-30 10:54:49 51°27.688 3°6.08 353.3 13.5 355.3 17.1
2001-11-30 10:54:54 51°27.707 3°6.076 351.7 13.5 354.4 17.1
2001-11-30 10:54:59 51°27.725 3°6.071 350 13.4 352.2 17.1
2001-11-30 10:55:04 51°27.744 3°6.066 348.5 13.4 351 17.1
2001-11-30 10:55:07 51°27.755 3°6.063 346.8 13.4 349.8 17.2
2001-11-30 10:55:14 51°27.78 3°6.057 348 13.4 350.4 17.1
2001-11-30 10:55:19 51°27.799 3°6.057 354.3 13.4 355.9 17.2
2001-11-30 10:55:24 51°27.817 3°6.061 1 13.4 1.3 17.2
2001-11-30 10:55:29 51°27.835 3°6.068 9.3 13.4 10.6 17.3
2001-11-30 10:55:34 51°27.853 3°6.08 17.5 13.5 16.8 17.3
2001-11-30 10:55:39 51°27.869 3°6.095 25 13.6 26.1 17.4
2001-11-30 10:55:43 51°27.881 3°6.11 32.5 13.6 31.7 17.4
2001-11-30 10:55:49 51°27.897 3°6.135 40.7 13.7 40.9 17.3
2001-11-30 10:55:54 51°27.909 3°6.16 48.8 13.7 47.2 17.5
2001-11-30 10:55:59 51°27.918 3°6.187 58 13.8 57.1 17.5
2001-11-30 10:56:03 51°27.924 3°6.21 66.3 13.8 62.6 17.5
2001-11-30 10:56:09 51°27.93 3°6.246 73.8 13.9 69.8 17.5
2001-11-30 10:56:14 51°27.935 3°6.276 77.2 14 74.3 17.5
2001-11-30 10:56:19 51°27.94 3°6.307 77.5 14.2 76.3 17.6
2001-11-30 10:56:24 51°27.946 3°6.337 75.8 14.3 74.9 17.6
2001-11-30 10:56:29 51°27.951 3°6.368 75.8 14.4 74.4 17.6
2001-11-30 10:56:34 51°27.958 3°6.398 73 14.4 72.4 17.5
2001-11-30 10:56:39 51°27.965 3°6.429 70.3 14.5 70 17.6
2001-11-30 10:56:44 51°27.973 3°6.459 68 14.6 68 17.6
2001-11-30 10:56:49 51°27.982 3°6.488 65.8 14.6 65.6 17.6
2001-11-30 10:56:54 51°27.991 3°6.517 63.7 14.7 64.1 17.6
2001-11-30 10:56:59 51°28 3°6.547 63.8 14.8 63.4 17.6
2001-11-30 10:57:04 51°28.009 3°6.576 65.2 14.8 63.8 17.6
2001-11-30 10:57:09 51°28.018 3°6.607 66.8 14.8 65.4 17.6
2001-11-30 10:57:14 51°28.026 3°6.637 66 14.9 65.4 17.6
2001-11-30 10:57:19 51°28.036 3°6.666 65 14.9 64.7 17.6
2001-11-30 10:57:24 51°28.045 3°6.696 64.7 14.9 64.3 17.6
2001-11-30 10:57:27 51°28.051 3°6.714 63.5 14.9 63.1 17.6
2001-11-30 10:57:34 51°28.064 3°6.755 63.2 14.8 62.7 17.6
2001-11-30 10:57:39 51°28.073 3°6.784 63.5 14.8 62.9 17.6
2001-11-30 10:57:44 51°28.082 3°6.813 63.3 14.8 62.6 17.6
2001-11-30 10:57:49 51°28.092 3°6.843 63.8 14.9 63.5 17.6
2001-11-30 10:57:54 51°28.101 3°6.872 63.5 14.9 63 17.6
2001-11-30 10:57:59 51°28.11 3°6.902 64.2 14.9 63.5 17.5
2001-11-30 10:58:04 51°28.12 3°6.931 63.5 14.9 63.3 17.5
2001-11-30 10:58:09 51°28.129 3°6.961 64.3 15 63.5 17.5
2001-11-30 10:58:14 51°28.139 3°6.99 64 15 63.5 17.5
2001-11-30 10:58:19 51°28.147 3°7.021 64.5 15 63.8 17.5
2001-11-30 10:58:23 51°28.155 3°7.045 65 15.1 64 17.5
2001-11-30 10:58:29 51°28.165 3°7.081 66 15.1 65.2 17.5
2001-11-30 10:58:34 51°28.174 3°7.112 66.7 15.1 65.4 17.6
2001-11-30 10:58:39 51°28.182 3°7.143 67.2 15.1 66.3 17.6
2001-11-30 10:58:43 51°28.189 3°7.167 67 15.1 66.4 17.5
2001-11-30 10:58:49 51°28.199 3°7.204 66.5 15.1 65.9 17.5
2001-11-30 10:58:54 51°28.208 3°7.234 66.5 15.1 65.8 17.5
2001-11-30 10:58:59 51°28.217 3°7.265 66.3 15.1 65.7 17.5
2001-11-30 10:59:04 51°28.225 3°7.296 66.3 15.1 65.4 17.5
2001-11-30 10:59:07 51°28.23 3°7.314 66.3 15 65.5 17.5
2001-11-30 10:59:14 51°28.243 3°7.355 65.5 14.9 64.7 17.5
2001-11-30 10:59:19 51°28.252 3°7.385 64.3 14.9 64 17.5
2001-11-30 10:59:24 51°28.261 3°7.415 64.5 14.9 63.8 17.5
2001-11-30 10:59:29 51°28.271 3°7.444 63.8 15 63.2 17.4
2001-11-30 10:59:34 51°28.28 3°7.474 63.5 14.9 62.8 17.4
2001-11-30 10:59:39 51°28.29 3°7.503 63.5 14.9 62.9 17.4
2001-11-30 10:59:43 51°28.298 3°7.527 63.2 14.9 62.3 17.3
2001-11-30 10:59:49 51°28.309 3°7.562 63.2 15 62.7 17.3
2001-11-30 10:59:54 51°28.317 3°7.593 64.5 15 63.5 17.2
2001-11-30 10:59:59 51°28.327 3°7.622 64.2 15 63.4 17.3
2001-11-30 11:00:04 51°28.335 3°7.653 65.3 15 64.8 17.3
2001-11-30 11:00:09 51°28.345 3°7.683 65.3 15 64.3 17.3
2001-11-30 11:00:14 51°28.353 3°7.713 65.8 15.1 65.6 17.2
2001-11-30 11:00:19 51°28.362 3°7.743 65.7 15 64.8 17.2
2001-11-30 11:00:23 51°28.369 3°7.768 66.3 15 65.9 17.2
2001-11-30 11:00:27 51°28.376 3°7.792 65.7 15.1 65.2 17.1
2001-11-30 11:00:34 51°28.388 3°7.835 66.5 15.1 65.9 17.1
2001-11-30 11:00:39 51°28.397 3°7.865 66.8 15 65.7 17.1
2001-11-30 11:00:44 51°28.405 3°7.896 67.7 15 66.5 17
2001-11-30 11:00:49 51°28.414 3°7.926 66.7 15.1 65.7 17
2001-11-30 11:00:54 51°28.422 3°7.958 67 15.2 66.7 16.9
2001-11-30 11:00:59 51°28.431 3°7.988 66.3 15.1 65.4 16.8
2001-11-30 11:01:03 51°28.437 3°8.013 66.8 15.1 66.7 16.7
2001-11-30 11:01:09 51°28.448 3°8.049 65.7 15.2 64.7 16.7
2001-11-30 11:01:14 51°28.457 3°8.08 66 15.3 66.1 16.6
2001-11-30 11:01:19 51°28.465 3°8.111 66.2 15.2 65.1 16.4
2001-11-30 11:01:24 51°28.475 3°8.141 65.7 15.1 65.6 16.5
2001-11-30 11:01:29 51°28.483 3°8.172 65.5 15.2 65 16.3
2001-11-30 11:01:34 51°28.493 3°8.202 65.2 15.2 64.9 16.2
2001-11-30 11:01:39 51°28.501 3°8.233 65.5 15.2 65.1 16.1
2001-11-30 11:01:44 51°28.51 3°8.263 66 15.1 65.4 16
2001-11-30 11:01:49 51°28.519 3°8.293 65.8 15.1 65.4 15.9
2001-11-30 11:01:54 51°28.527 3°8.325 66.8 15.1 65.4 16
2001-11-30 11:01:59 51°28.536 3°8.355 66.2 15.2 65.1 16.1
2001-11-30 11:02:04 51°28.545 3°8.386 66 15.2 66.3 16.2
2001-11-30 11:02:09 51°28.554 3°8.415 63.8 15.1 63.8 16.3
2001-11-30 11:02:14 51°28.563 3°8.446 65.2 15 65.2 16.4
2001-11-30 11:02:19 51°28.572 3°8.476 64.7 15.1 63.9 16.5
2001-11-30 11:02:24 51°28.582 3°8.506 64.5 15.2 64.9 16.6
2001-11-30 11:02:29 51°28.591 3°8.536 65.3 15.1 64.4 16.9
2001-11-30 11:02:34 51°28.6 3°8.566 65.2 15 65.1 16.9
2001-11-30 11:02:39 51°28.608 3°8.597 65.8 15 64.7 17
2001-11-30 11:02:44 51°28.618 3°8.626 65.2 15 65.3 17.2
2001-11-30 11:02:48 51°28.625 3°8.651 65.3 14.9 64.5 17.3
2001-11-30 11:02:54 51°28.635 3°8.687 65 14.9 65.5 17.3
2001-11-30 11:02:59 51°28.644 3°8.717 65.2 15 64.3 17.3
2001-11-30 11:03:04 51°28.654 3°8.747 64.7 15 65.1 17.3
2001-11-30 11:03:08 51°28.662 3°8.77 64.2 14.9 63.2 17.2
2001-11-30 11:03:14 51°28.672 3°8.806 64 14.9 64.1 17.3
2001-11-30 11:03:19 51°28.681 3°8.836 64 14.9 63.3 17.6
2001-11-30 11:03:24 51°28.691 3°8.865 64.7 14.9 64.3 17.7
2001-11-30 11:03:28 51°28.698 3°8.89 65 15.1 64.1 17.8
2001-11-30 11:03:34 51°28.71 3°8.925 64.7 15.1 64.9 17.9
2001-11-30 11:03:39 51°28.718 3°8.956 65.3 15 64.4 18
2001-11-30 11:03:44 51°28.728 3°8.985 64.7 14.9 63.9 18
2001-11-30 11:03:49 51°28.736 3°9.016 65.7 15 64.9 18
2001-11-30 11:03:54 51°28.746 3°9.045 64.8 15.1 63.9 17.7
2001-11-30 11:03:59 51°28.754 3°9.076 65.2 15 64.5 17.9
2001-11-30 11:04:03 51°28.762 3°9.099 64.7 14.9 63.7 17.9
2001-11-30 11:04:08 51°28.77 3°9.129 65 15 64.1 17.8
2001-11-30 11:04:14 51°28.781 3°9.165 65.7 15 63.9 17.9
2001-11-30 11:04:19 51°28.79 3°9.195 65.3 15 64.4 17.8
2001-11-30 11:04:23 51°28.798 3°9.219 65.5 15 64.1 17.8
2001-11-30 11:04:29 51°28.809 3°9.255 65.3 14.9 64.7 17.7
2001-11-30 11:04:34 51°28.817 3°9.286 65.5 15 64.1 17.8
2001-11-30 11:04:39 51°28.827 3°9.316 65.5 15.2 64.4 17.8
2001-11-30 11:04:44 51°28.836 3°9.346 65.7 15.1 64.4 17.8
2001-11-30 11:04:49 51°28.845 3°9.375 64.7 14.9 63.6 17.8
2001-11-30 11:04:54 51°28.854 3°9.405 65 14.9 64.1 18
2001-11-30 11:04:59 51°28.863 3°9.435 65 15.1 63.9 17.8
2001-11-30 11:05:04 51°28.872 3°9.465 64.8 15.1 63.8 17.8
2001-11-30 11:05:09 51°28.881 3°9.495 65.2 15 63.7 17.9
2001-11-30 11:05:14 51°28.891 3°9.524 64.7 14.9 63.8 17.8
2001-11-30 11:05:19 51°28.9 3°9.555 65.7 15.1 64.4 17.8
2001-11-30 11:05:24 51°28.909 3°9.585 65.5 15.2 64.2 17.9
2001-11-30 11:05:29 51°28.918 3°9.615 65.7 15.1 64.3 17.9
2001-11-30 11:05:34 51°28.927 3°9.645 65 15 64.1 17.8
2001-11-30 11:05:39 51°28.936 3°9.675 65 15 64.1 17.8
2001-11-30 11:05:44 51°28.944 3°9.706 67.7 15.1 65.5 17.7
2001-11-30 11:05:49 51°28.951 3°9.738 71.2 15.1 66.8 17.7
2001-11-30 11:05:54 51°28.956 3°9.77 74.5 15 71.6 17.7
2001-11-30 11:05:59 51°28.961 3°9.803 77.8 15 75.8 17.5
2001-11-30 11:06:04 51°28.964 3°9.835 81.8 15 78.3 17.5
2001-11-30 11:06:08 51°28.966 3°9.862 85.7 15 82.9 17.5
2001-11-30 11:06:14 51°28.967 3°9.901 88.5 15 84.9 17.5
2001-11-30 11:06:19 51°28.967 3°9.934 92.2 14.9 88.7 17.4
2001-11-30 11:06:24 51°28.966 3°9.968 95.3 14.9 91.2 17.4
2001-11-30 11:06:28 51°28.964 3°9.994 99.2 15 95.3 17.3
2001-11-30 11:06:34 51°28.959 3°10.033 103.7 14.9 98.2 17.2
2001-11-30 11:06:39 51°28.954 3°10.065 107.5 14.8 102.5 17.1
2001-11-30 11:06:44 51°28.947 3°10.096 111.3 14.8 105.5 17
2001-11-30 11:06:49 51°28.939 3°10.126 115.7 14.8 107.3 16.9
2001-11-30 11:06:54 51°28.93 3°10.155 120.2 14.7 113.6 16.8
2001-11-30 11:06:59 51°28.92 3°10.183 124.3 14.6 118.8 16.7
2001-11-30 11:07:04 51°28.908 3°10.209 129 14.6 121.8 16.7
2001-11-30 11:07:09 51°28.896 3°10.235 131.7 14.5 123.4 16.6
2001-11-30 11:07:14 51°28.884 3°10.262 131.5 14.5 125.6 16.5
2001-11-30 11:07:19 51°28.872 3°10.289 130.5 14.6 124.7 16.4
2001-11-30 11:07:24 51°28.861 3°10.316 130 14.6 124.2 16.1
2001-11-30 11:07:28 51°28.852 3°10.338 129.5 14.7 123.4 16.1
2001-11-30 11:07:34 51°28.839 3°10.371 128.7 14.8 122.8 16.1
2001-11-30 11:07:39 51°28.828 3°10.398 128.2 14.8 122.8 16
2001-11-30 11:07:44 51°28.817 3°10.427 128 14.8 122.3 15.9
2001-11-30 11:07:49 51°28.806 3°10.454 127.8 14.7 122 15.6
2001-11-30 11:07:54 51°28.795 3°10.482 128 14.8 121.7 15.4
2001-11-30 11:07:59 51°28.784 3°10.51 127.2 14.9 121.9 15.6
2001-11-30 11:08:04 51°28.774 3°10.539 127 14.9 121.1 15.5
2001-11-30 11:08:09 51°28.763 3°10.566 127.7 14.9 121.1 15.5
2001-11-30 11:08:14 51°28.752 3°10.595 127.7 14.8 121.3 15.4
2001-11-30 11:08:19 51°28.742 3°10.623 127.3 14.8 121.6 15.3